Aviation Digital Data Service (ADDS)

Output produced by METARs form (1116 UTC 18 January 2022)
found at http://aviationweather.gov/metar/data/
 
METAR text: ETMN 181105Z 26009KT 5000 -DZ BR FEW002 BKN006 06/05 Q1036 YLO GRN TEMPO YLO
Conditions at: ETMN (NORDHOLZ (GER-NA, DE) observed 1105 UTC 18 January 2022
Temperature: 6.0°C (43°F)
Dewpoint: 5.0°C (41°F) [RH = 93%]
Pressure (altimeter): 30.59 inches Hg (1036.0 mb)
Winds: from the W (260 degrees) at 10 MPH (9 knots; 4.6 m/s)
Visibility: 3 miles ( 5 km)
Ceiling: 600 feet AGL
Clouds: few clouds at 200 feet AGL
broken clouds at 600 feet AGL
Weather: -DZ BR  (light drizzle, mist)

METAR text: ETMN 181041Z 26008KT 3000 -DZ BR SCT003 BKN005 06/05 Q1036 YLO GRN TEMPO YLO
Conditions at: ETMN (NORDHOLZ (GER-NA, DE) observed 1041 UTC 18 January 2022
Temperature: 6.0°C (43°F)
Dewpoint: 5.0°C (41°F) [RH = 93%]
Pressure (altimeter): 30.59 inches Hg (1036.0 mb)
Winds: from the W (260 degrees) at 9 MPH (8 knots; 4.1 m/s)
Visibility: 1.86 miles (2.99 km)
Ceiling: 500 feet AGL
Clouds: scattered clouds at 300 feet AGL
broken clouds at 500 feet AGL
Weather: -DZ BR  (light drizzle, mist)

METAR text: ETMN 181020Z 27009KT 4500 -DZ BR SCT003 BKN006 06/05 Q1036 YLO GRN TEMPO YLO
Conditions at: ETMN (NORDHOLZ (GER-NA, DE) observed 1020 UTC 18 January 2022
Temperature: 6.0°C (43°F)
Dewpoint: 5.0°C (41°F) [RH = 93%]
Pressure (altimeter): 30.59 inches Hg (1036.0 mb)
Winds: from the W (270 degrees) at 10 MPH (9 knots; 4.6 m/s)
Visibility: 2.80 miles (4.51 km)
Ceiling: 600 feet AGL
Clouds: scattered clouds at 300 feet AGL
broken clouds at 600 feet AGL
Weather: -DZ BR  (light drizzle, mist)

Forecast for: AMD
Text: TAF AMD ETMN 181022Z 1810/1818 27010KT 8000 NSW SCT004 BKN008
Forecast period: 1000 to 1600 UTC 18 January 2022
Forecast type: FROM: standard forecast or significant change
Winds: from the W (270 degrees) at 12 MPH (10 knots; 5.1 m/s)
Visibility: 5 miles (8 km)
Ceiling: 800 feet AGL
Clouds: scattered clouds at 400 feet AGL
broken clouds at 800 feet AGL
Weather: NSW  (no significant weather)
Text: TEMPO 1810/1816 27008KT 4000 -DZ SCT002 BKN004
Forecast period: 1000 to 1600 UTC 18 January 2022
Forecast type: TEMPORARY: The following changes expected for less than half the time period
Winds: from the W (270 degrees) at 9 MPH (8 knots; 4.1 m/s)
Visibility: 2.49 miles (4.01 km)
Ceiling: 400 feet AGL
Clouds: scattered clouds at 200 feet AGL
broken clouds at 400 feet AGL
Weather: -DZ  (light drizzle)
Text: BECMG 1816/1818 25008KT 2000 BR BKN002
Forecast period: 1600 to 1800 UTC 18 January 2022
Forecast type: BECOMING: Conditions expected to become as follows by 1800 UTC 18 January 2022
Winds: from the WSW (250 degrees) at 9 MPH (8 knots; 4.1 m/s)
Visibility: 1.24 miles (2.00 km)
Ceiling: 200 feet AGL
Clouds: broken clouds at 200 feet AGL
Weather: BR  (mist)
Text: PROB30 1817/1818 25006KT 0500 FG VV001
Forecast period: 1700 to 1800 UTC 18 January 2022
Forecast type: PROBABLE: 30 percent likelihood of the following during this time
Winds: from the WSW (250 degrees) at 7 MPH (6 knots; 3.1 m/s)
Visibility: 0.31 miles (0.50 km)
Ceiling: indefinite ceiling with vertical visibility of 100 feet AGL
Clouds: obscured sky
Weather: FG  (fog)